TAF KTYR
KTYR 072320Z 0800/0824 12008KT P6SM SKC FM080800 12005KT P6SM OVC008 FM081600 15007KT P6SM BKN020 FM081800 16006KT P6SM SCT250=
METAR KTYR
WC KTYR
WS KTYR
WV KTYR